ZCO weather

La Araucanía Airport
Temuco, Araucanía Region, Chile

Public forecast

Using degrees Celsius for public forecast. Weather courtesy of forecast.io.

METAR (pilot weather report)

Report is more than 2 hours old.

Retrieved 2019/03/26 18:00 UTC (2 hours ago):

SCQP 261800Z 10007KT 060V130 CAVOK 31/08 Q1010

TAF (pilot weather forecast)

Retrieved 2019/03/26 18:00 UTC (2 hours ago):

TAF SCQP 261601Z 2618/2718 14010KT CAVOK TX29/2619Z TN07/2711Z BECMG 2702/2704 VRB03KT